26 de junio de 2022

Hora Código Tiempo Temp. Visibilidad Cielo nuboso Viento METAR/SPECI
12:50 p. m.
V
73 °F 6¼ mi+ - 230° 230° 5 kt METAR EDDG 261050Z 23005KT 130V290 9999 FEW035 23/12 Q1016 NOSIG
12:20 p. m.
V
73 °F 6¼ mi+ - 270° 270° 9 kt METAR EDDG 261020Z 27009KT 230V310 9999 FEW032 23/13 Q1016 NOSIG
11:50 a. m.
V
72 °F 6¼ mi+ - 270° 270° 9 kt METAR EDDG 260950Z 27009KT 190V330 9999 SCT030 22/13 Q1016 NOSIG
11:20 a. m.
V
72 °F 6¼ mi+ - 230° 230° 8 kt METAR EDDG 260920Z 23008KT 170V270 9999 SCT025 22/14 Q1016 NOSIG
10:50 a. m.
V
70 °F 6¼ mi+ - 250° 250° 10 kt METAR EDDG 260850Z 25010KT 200V280 9999 SCT022 21/15 Q1015 NOSIG
10:20 a. m.
V
70 °F 6¼ mi+ - 230° 230° 10 kt METAR EDDG 260820Z 23010KT 200V260 9999 SCT020 21/14 Q1015 NOSIG
9:50 a. m.
V
68 °F 6¼ mi+ - 270° 270° 9 kt METAR EDDG 260750Z 27009KT 230V300 9999 SCT020 SCT030 20/15 Q1015 NOSIG
9:20 a. m.
M
68 °F 6¼ mi+ 2.000 ft 260° 260° 9 kt METAR EDDG 260720Z 26009KT 9999 BKN020 20/15 Q1015 NOSIG
8:50 a. m.
V
68 °F 6¼ mi+ - 250° 250° 8 kt METAR EDDG 260650Z 25008KT 9999 SCT018 20/15 Q1014 NOSIG
8:20 a. m.
V
66 °F 6¼ mi+ - 250° 250° 9 kt METAR EDDG 260620Z 25009KT 9999 SCT015 19/15 Q1014 NOSIG
7:50 a. m.
V
66 °F 6¼ mi+ - 260° 260° 8 kt METAR EDDG 260550Z 26008KT 9999 FEW015 19/15 Q1014 NOSIG
7:20 a. m.
V
66 °F 6¼ mi+ - 250° 250° 7 kt METAR EDDG 260520Z 25007KT 9999 FEW020 19/16 Q1014 NOSIG
6:50 a. m.
V
66 °F 6¼ mi+ - 250° 250° 7 kt METAR EDDG 260450Z 25007KT 210V270 9999 FEW038 19/16 Q1013 NOSIG
6:20 a. m.
V
66 °F 6¼ mi+ - 220° 220° 5 kt METAR EDDG 260420Z 22005KT 160V250 CAVOK 19/15 Q1013 NOSIG
5:50 a. m.
V
64 °F 6¼ mi+ - 190° 190° 5 kt METAR EDDG 260350Z 19005KT 160V220 CAVOK 18/15 Q1012 NOSIG
5:20 a. m.
V
66 °F 6¼ mi+ - 200° 200° 3 kt METAR EDDG 260320Z 20003KT 150V260 CAVOK 19/15 Q1012 NOSIG
4:50 a. m.
V
64 °F 6¼ mi+ - Var Var 1 kt METAR EDDG 260250Z VRB01KT CAVOK 18/14 Q1012 NOSIG
4:20 a. m.
V
68 °F 6¼ mi+ - 240° 240° 5 kt METAR EDDG 260220Z 24005KT 190V270 CAVOK 20/15 Q1012 NOSIG
3:50 a. m.
V
66 °F 6¼ mi+ - 200° 200° 5 kt METAR EDDG 260150Z 20005KT 120V220 CAVOK 19/14 Q1012 NOSIG
3:20 a. m.
V
64 °F 6¼ mi+ - Var Var 2 kt METAR EDDG 260120Z VRB02KT CAVOK 18/14 Q1011 NOSIG
2:50 a. m.
V
64 °F 6¼ mi+ - 100° 100° 3 kt METAR EDDG 260050Z 10003KT 040V210 CAVOK 18/14 Q1011 NOSIG
2:20 a. m.
V
64 °F 6¼ mi+ - Var Var 2 kt METAR EDDG 260020Z VRB02KT CAVOK 18/14 Q1011 NOSIG
1:50 a. m.
V
64 °F 6¼ mi+ - 110° 110° 3 kt METAR EDDG 252350Z 11003KT 040V200 CAVOK 18/14 Q1011 NOSIG
1:20 a. m.
V
63 °F 6¼ mi+ - 070° 070° 1 kt METAR EDDG 252320Z 07001KT CAVOK 17/15 Q1011 NOSIG
12:50 a. m.
V
64 °F 6¼ mi+ - 160° 160° 1 kt METAR EDDG 252250Z 16001KT CAVOK 18/14 Q1011 NOSIG
12:20 a. m.
V
64 °F 6¼ mi+ - Var Var 1 kt METAR EDDG 252220Z VRB01KT CAVOK 18/14 Q1011 NOSIG

25 de junio de 2022

Hora Código Tiempo Temp. Visibilidad Cielo nuboso Viento METAR/SPECI
11:50 p. m.
V
64 °F 6¼ mi+ - 040° 040° 1 kt METAR EDDG 252150Z 04001KT CAVOK 18/15 Q1011 NOSIG
11:20 p. m.
V
66 °F 6¼ mi+ - Var Var 1 kt METAR EDDG 252120Z VRB01KT CAVOK 19/14 Q1011 NOSIG
10:50 p. m.
V
68 °F 6¼ mi+ - Var Var 2 kt METAR EDDG 252050Z VRB02KT CAVOK 20/15 Q1011 NOSIG
10:20 p. m.
V
70 °F 6¼ mi+ - Var Var 1 kt METAR EDDG 252020Z VRB01KT CAVOK 21/14 Q1011 NOSIG
9:50 p. m.
V
72 °F 6¼ mi+ - Var Var 2 kt METAR EDDG 251950Z VRB02KT CAVOK 22/14 Q1011 NOSIG
9:20 p. m.
V
73 °F 6¼ mi+ - Var Var 1 kt METAR EDDG 251920Z VRB01KT CAVOK 23/14 Q1011 NOSIG
8:50 p. m.
V
77 °F 6¼ mi+ - 330° 330° 3 kt METAR EDDG 251850Z 33003KT 300V010 CAVOK 25/14 Q1011 NOSIG
8:20 p. m.
V
79 °F 6¼ mi+ - 260° 260° 5 kt METAR EDDG 251820Z 26005KT 220V290 CAVOK 26/13 Q1011 NOSIG
7:50 p. m.
V
79 °F 6¼ mi+ - 220° 220° 3 kt METAR EDDG 251750Z 22003KT 150V300 CAVOK 26/13 Q1011 NOSIG
7:20 p. m.
V
79 °F 6¼ mi+ - 270° 270° 4 kt METAR EDDG 251720Z 27004KT 210V320 CAVOK 26/13 Q1011 NOSIG
6:50 p. m.
V
81 °F 6¼ mi+ - 220° 220° 5 kt METAR EDDG 251650Z 22005KT 150V270 CAVOK 27/12 Q1011 NOSIG
6:20 p. m.
V
81 °F 6¼ mi+ - 250° 250° 8 kt METAR EDDG 251620Z 25008KT 210V290 CAVOK 27/12 Q1011 NOSIG
5:50 p. m.
V
81 °F 6¼ mi+ - 260° 260° 7 kt METAR EDDG 251550Z 26007KT 190V320 CAVOK 27/12 Q1011 NOSIG
5:20 p. m.
V
82 °F 6¼ mi+ - 250° 250° 8 kt METAR EDDG 251520Z 25008KT 190V290 CAVOK 28/12 Q1011 NOSIG
4:50 p. m.
V
82 °F 6¼ mi+ - 200° 200° 5 kt METAR EDDG 251450Z 20005KT 080V250 CAVOK 28/12 Q1011 NOSIG
4:20 p. m.
V
81 °F 6¼ mi+ - Var Var 7 kt METAR EDDG 251420Z VRB07KT CAVOK 27/11 Q1011 NOSIG
3:50 p. m.
V
82 °F 6¼ mi+ - 220° 220° 6 kt METAR EDDG 251350Z 22006KT CAVOK 28/12 Q1011 NOSIG
3:20 p. m.
V
81 °F 6¼ mi+ - 220° 220° 9 kt METAR EDDG 251320Z 22009KT 140V260 CAVOK 27/11 Q1012 NOSIG
2:50 p. m.
V
82 °F 6¼ mi+ - 210° 210° 9 kt METAR EDDG 251250Z 21009KT 170V250 CAVOK 28/11 Q1012 NOSIG
2:20 p. m.
V
81 °F 6¼ mi+ - 200° 200° 9 kt METAR EDDG 251220Z 20009KT 140V240 CAVOK 27/12 Q1012 NOSIG
1:50 p. m.
V
79 °F 6¼ mi+ - 220° 220° 9 kt METAR EDDG 251150Z 22009KT 160V260 9999 FEW045 26/13 Q1012 NOSIG
1:20 p. m.
V
77 °F 6¼ mi+ - 220° 220° 10 kt METAR EDDG 251120Z 22010KT 170V260 9999 FEW046 25/13 Q1012 NOSIG
12:50 p. m.
V
77 °F 6¼ mi+ - 210° 210° 10 kt METAR EDDG 251050Z 21010KT 160V250 9999 SCT042 25/13 Q1012 NOSIG
12:20 p. m.
V
77 °F 6¼ mi+ - 210° 210° 10 kt METAR EDDG 251020Z 21010KT 170V260 9999 SCT044 25/13 Q1012 NOSIG
11:20 a. m.
V
77 °F 6¼ mi+ - 180° 180° 9 kt METAR EDDG 250920Z 18009KT 130V230 9999 SCT036 25/14 Q1012 NOSIG
10:50 a. m.
V
75 °F 6¼ mi+ - 190° 190° 7 kt METAR EDDG 250850Z 19007KT 120V240 9999 SCT034 24/14 Q1012 NOSIG
10:20 a. m.
V
73 °F 6¼ mi+ - 220° 220° 7 kt METAR EDDG 250820Z 22007KT 170V260 9999 FEW032 23/14 Q1012 NOSIG
9:50 a. m.
V
73 °F 6¼ mi+ - 200° 200° 5 kt METAR EDDG 250750Z 20005KT 120V240 9999 FEW032 23/14 Q1012 NOSIG
9:20 a. m.
V
72 °F 6¼ mi+ - 190° 190° 6 kt METAR EDDG 250720Z 19006KT 120V240 9999 FEW032 22/14 Q1012 NOSIG
8:50 a. m.
V
70 °F 6¼ mi+ - 200° 200° 6 kt METAR EDDG 250650Z 20006KT 160V240 9999 FEW024 21/15 Q1012 NOSIG
8:20 a. m.
V
68 °F 6¼ mi+ - 190° 190° 5 kt METAR EDDG 250620Z 19005KT 140V250 9999 FEW024 20/14 Q1012 NOSIG
7:50 a. m.
V
68 °F 6¼ mi+ - 180° 180° 5 kt METAR EDDG 250550Z 18005KT 140V240 CAVOK 20/15 Q1012 NOSIG
7:20 a. m.
V
66 °F 6¼ mi+ - 190° 190° 5 kt METAR EDDG 250520Z 19005KT 140V230 CAVOK 19/15 Q1011 NOSIG
6:50 a. m.
V
64 °F 6¼ mi+ - 180° 180° 4 kt METAR EDDG 250450Z 18004KT 140V210 CAVOK 18/15 Q1011 NOSIG
6:20 a. m.
V
63 °F 6¼ mi+ - 170° 170° 4 kt METAR EDDG 250420Z 17004KT 140V210 CAVOK 17/15 Q1011 NOSIG
5:50 a. m.
V
61 °F 6¼ mi+ - 170° 170° 4 kt METAR EDDG 250350Z 17004KT CAVOK 16/15 Q1010 NOSIG
5:20 a. m.
V
59 °F 6¼ mi+ - 150° 150° 3 kt METAR EDDG 250320Z 15003KT CAVOK 15/15 Q1010 NOSIG
4:50 a. m.
V
59 °F 6¼ mi+ - 140° 140° 3 kt METAR EDDG 250250Z 14003KT CAVOK 15/15 Q1010 NOSIG
4:20 a. m.
V
59 °F 6¼ mi+ - Var Var 1 kt METAR EDDG 250220Z VRB01KT CAVOK 15/15 Q1010 NOSIG
3:50 a. m.
V
61 °F 6¼ mi+ - 150° 150° 3 kt METAR EDDG 250150Z 15003KT 110V200 CAVOK 16/16 Q1010 NOSIG
3:20 a. m.
V
63 °F 6¼ mi+ - 180° 180° 4 kt METAR EDDG 250120Z 18004KT 140V230 CAVOK 17/16 Q1009 NOSIG
2:50 a. m.
V
63 °F 6¼ mi+ - 170° 170° 4 kt METAR EDDG 250050Z 17004KT 150V220 CAVOK 17/16 Q1009 NOSIG
2:20 a. m.
V
63 °F 6¼ mi+ - 140° 140° 3 kt METAR EDDG 250020Z 14003KT CAVOK 17/16 Q1009 NOSIG
1:50 a. m.
V
63 °F 6¼ mi+ - Var Var 2 kt METAR EDDG 242350Z VRB02KT CAVOK 17/16 Q1009 NOSIG
1:20 a. m.
V
64 °F 6¼ mi+ - 150° 150° 3 kt METAR EDDG 242320Z 15003KT CAVOK 18/16 Q1009 NOSIG
12:50 a. m.
V
66 °F 6¼ mi+ - 190° 190° 4 kt METAR EDDG 242250Z 19004KT 150V250 CAVOK 19/17 Q1009 NOSIG
12:20 a. m.
V
66 °F 6¼ mi+ - 190° 190° 6 kt METAR EDDG 242220Z 19006KT 160V220 9999 FEW038 19/17 Q1009 NOSIG

24 de junio de 2022

Hora Código Tiempo Temp. Visibilidad Cielo nuboso Viento METAR/SPECI
11:50 p. m.
V
68 °F 6¼ mi+ - 200° 200° 6 kt METAR EDDG 242150Z 20006KT 160V220 9999 FEW038 20/16 Q1009 NOSIG
11:20 p. m.
V
70 °F 6¼ mi+ - 190° 190° 5 kt METAR EDDG 242120Z 19005KT 160V220 9999 FEW037 21/16 Q1008 NOSIG
10:50 p. m.
V
70 °F 6¼ mi+ - 180° 180° 4 kt METAR EDDG 242050Z 18004KT 130V210 9999 FEW037 21/17 Q1008 NOSIG
10:20 p. m.
V
70 °F 6¼ mi+ - 170° 170° 4 kt METAR EDDG 242020Z 17004KT 150V210 9999 FEW035 FEW040CB 21/17 Q1008 NOSIG
9:50 p. m.
V
72 °F 6¼ mi+ - 160° 160° 3 kt METAR EDDG 241950Z 16003KT 9999 -SHRA FEW034 FEW040CB 22/17 Q1008 NOSIG
9:20 p. m.
V
72 °F 6¼ mi+ - Var Var 1 kt METAR EDDG 241920Z VRB01KT 9999 FEW034 22/17 Q1007 NOSIG
8:50 p. m.
V
72 °F 6¼ mi+ - Var Var 2 kt METAR EDDG 241850Z VRB02KT 9999 FEW034 22/17 Q1007 NOSIG
8:20 p. m.
V
73 °F 6¼ mi+ - Var Var 2 kt METAR EDDG 241820Z VRB02KT 9999 FEW034 23/16 Q1007 NOSIG
7:50 p. m.
V
73 °F 6¼ mi+ - 240° 240° 5 kt METAR EDDG 241750Z 24005KT 9999 FEW036 23/15 Q1007 NOSIG
7:20 p. m.
V
75 °F 6¼ mi+ - 300° 300° 4 kt METAR EDDG 241720Z 30004KT 260V340 9999 FEW034 24/15 Q1006 NOSIG
6:50 p. m.
V
75 °F 6¼ mi+ - 290° 290° 6 kt METAR EDDG 241650Z 29006KT 250V020 9999 FEW034 24/15 Q1006 NOSIG
6:20 p. m.
V
77 °F 6¼ mi+ - 270° 270° 4 kt METAR EDDG 241620Z 27004KT 210V330 9999 SCT034 25/15 Q1006 NOSIG
5:50 p. m.
V
77 °F 6¼ mi+ - 270° 270° 6 kt METAR EDDG 241550Z 27006KT 220V310 9999 FEW034 25/15 Q1006 NOSIG
5:20 p. m.
V
75 °F 6¼ mi+ - 260° 260° 8 kt METAR EDDG 241520Z 26008KT 200V350 9999 FEW033 24/15 Q1006 NOSIG
4:50 p. m.
V
77 °F 6¼ mi+ - 270° 270° 5 kt METAR EDDG 241450Z 27005KT 210V330 9999 FEW032 25/15 Q1006 NOSIG
4:20 p. m.
V
75 °F 6¼ mi+ - 290° 290° 6 kt METAR EDDG 241420Z 29006KT 240V010 9999 FEW036 24/15 Q1007 NOSIG
3:50 p. m.
V
73 °F 6¼ mi+ - 270° 270° 9 kt METAR EDDG 241350Z 27009KT 240V320 9999 FEW030 SCT046 23/15 Q1006 NOSIG
3:20 p. m.
V
73 °F 6¼ mi+ - 260° 260° 10 kt METAR EDDG 241320Z 26010KT 9999 SCT024 SCT048 23/16 Q1007 NOSIG
2:50 p. m.
V
73 °F 6¼ mi+ - 280° 280° 9 kt METAR EDDG 241250Z 28009KT 250V310 9999 FEW019 SCT028TCU 23/17 Q1006 NOSIG
2:20 p. m.
V
72 °F 6¼ mi+ - 270° 270° 12 kt METAR EDDG 241220Z 27012KT 9999 SCT017TCU 22/17 Q1006 NOSIG
1:50 p. m.
V
72 °F 6¼ mi+ - 260° 260° 10 kt METAR EDDG 241150Z 26010KT 9999 SCT019 22/17 Q1006 NOSIG
1:20 p. m.
M
70 °F 6¼ mi+ 1.800 ft 250° 250° 13 kt METAR EDDG 241120Z 25013KT 9999 BKN018 21/18 Q1006 NOSIG
12:50 p. m.
M
72 °F 6¼ mi+ 1.700 ft 210° 210° 10 kt METAR EDDG 241050Z 21010KT 170V240 9999 BKN017 22/18 Q1006 NOSIG
Datos más antiguos

Descarga nuestra aplicación

Acceso fácil a todo el tiempo de la aviación en tu teléfono móvil y tableta.
Con muchas funciones no disponibles en el sitio web, como la compatibilidad sin conexión y una lista personal de aeropuertos.

Nosotros y terceros seguimos tu comportamiento en Internet en nuestro sitio web con cookies. Si continúas, asumimos que estás de acuerdo con nuestra política de cookies. Más información